sensor_id;sensor_type;location;lat;lon;timestamp;P1;durP1;ratioP1;P2;durP2;ratioP2
65583;SDS011;62116;43.582;1.470;2023-02-15T00:00:39;6.78;;;3.70;;
65583;SDS011;62116;43.582;1.470;2023-02-15T00:03:05;11.68;;;4.00;;
65583;SDS011;62116;43.582;1.470;2023-02-15T00:05:30;9.50;;;3.95;;
65583;SDS011;62116;43.582;1.470;2023-02-15T00:07:56;8.32;;;3.97;;
65583;SDS011;62116;43.582;1.470;2023-02-15T00:10:21;8.48;;;4.03;;
65583;SDS011;62116;43.582;1.470;2023-02-15T00:12:48;8.15;;;3.90;;
65583;SDS011;62116;43.582;1.470;2023-02-15T00:15:13;7.97;;;3.78;;
65583;SDS011;62116;43.582;1.470;2023-02-15T00:17:39;9.52;;;4.00;;
65583;SDS011;62116;43.582;1.470;2023-02-15T00:20:04;9.02;;;4.07;;
65583;SDS011;62116;43.582;1.470;2023-02-15T00:22:30;12.07;;;3.60;;
65583;SDS011;62116;43.582;1.470;2023-02-15T00:24:56;8.60;;;3.83;;
65583;SDS011;62116;43.582;1.470;2023-02-15T00:27:21;8.30;;;3.88;;
65583;SDS011;62116;43.582;1.470;2023-02-15T00:29:47;7.93;;;3.50;;
65583;SDS011;62116;43.582;1.470;2023-02-15T00:32:12;5.82;;;3.45;;
65583;SDS011;62116;43.582;1.470;2023-02-15T00:34:38;8.85;;;3.53;;
65583;SDS011;62116;43.582;1.470;2023-02-15T00:37:03;8.18;;;3.45;;
65583;SDS011;62116;43.582;1.470;2023-02-15T00:39:28;7.05;;;3.20;;
65583;SDS011;62116;43.582;1.470;2023-02-15T00:41:54;7.85;;;3.33;;
65583;SDS011;62116;43.582;1.470;2023-02-15T00:44:19;6.70;;;3.45;;
65583;SDS011;62116;43.582;1.470;2023-02-15T00:46:45;9.80;;;3.85;;
65583;SDS011;62116;43.582;1.470;2023-02-15T00:49:10;9.00;;;3.33;;
65583;SDS011;62116;43.582;1.470;2023-02-15T00:51:35;10.65;;;4.22;;
65583;SDS011;62116;43.582;1.470;2023-02-15T00:54:01;10.02;;;3.80;;
65583;SDS011;62116;43.582;1.470;2023-02-15T00:56:26;8.65;;;3.72;;
65583;SDS011;62116;43.582;1.470;2023-02-15T00:58:53;8.90;;;3.50;;
65583;SDS011;62116;43.582;1.470;2023-02-15T01:01:19;8.63;;;3.63;;
65583;SDS011;62116;43.582;1.470;2023-02-15T01:03:45;8.82;;;4.43;;
65583;SDS011;62116;43.582;1.470;2023-02-15T01:06:11;8.30;;;3.88;;
65583;SDS011;62116;43.582;1.470;2023-02-15T01:08:37;8.10;;;3.90;;
65583;SDS011;62116;43.582;1.470;2023-02-15T01:11:07;9.45;;;4.15;;
65583;SDS011;62116;43.582;1.470;2023-02-15T01:13:37;9.85;;;4.10;;
65583;SDS011;62116;43.582;1.470;2023-02-15T01:16:03;8.80;;;3.70;;
65583;SDS011;62116;43.582;1.470;2023-02-15T01:18:29;9.13;;;3.55;;
65583;SDS011;62116;43.582;1.470;2023-02-15T01:20:55;11.85;;;4.30;;
65583;SDS011;62116;43.582;1.470;2023-02-15T01:23:20;11.30;;;4.03;;
65583;SDS011;62116;43.582;1.470;2023-02-15T01:25:46;9.90;;;3.85;;
65583;SDS011;62116;43.582;1.470;2023-02-15T01:28:12;9.73;;;4.20;;
65583;SDS011;62116;43.582;1.470;2023-02-15T01:30:37;8.32;;;4.20;;
65583;SDS011;62116;43.582;1.470;2023-02-15T01:33:03;8.57;;;4.30;;
65583;SDS011;62116;43.582;1.470;2023-02-15T01:35:28;13.65;;;4.28;;
65583;SDS011;62116;43.582;1.470;2023-02-15T01:37:54;8.50;;;4.07;;
65583;SDS011;62116;43.582;1.470;2023-02-15T01:40:21;8.52;;;4.10;;
65583;SDS011;62116;43.582;1.470;2023-02-15T01:42:50;10.57;;;4.38;;
65583;SDS011;62116;43.582;1.470;2023-02-15T01:45:21;10.75;;;4.20;;
65583;SDS011;62116;43.582;1.470;2023-02-15T01:50:34;9.93;;;4.18;;
65583;SDS011;62116;43.582;1.470;2023-02-15T01:53:08;12.70;;;4.32;;
65583;SDS011;62116;43.582;1.470;2023-02-15T01:56:05;10.77;;;4.45;;
65583;SDS011;62116;43.582;1.470;2023-02-15T01:58:36;9.25;;;4.13;;
65583;SDS011;62116;43.582;1.470;2023-02-15T02:01:02;10.57;;;4.18;;
65583;SDS011;62116;43.582;1.470;2023-02-15T02:03:36;11.65;;;4.55;;
65583;SDS011;62116;43.582;1.470;2023-02-15T02:06:08;10.32;;;4.25;;
65583;SDS011;62116;43.582;1.470;2023-02-15T02:08:35;11.40;;;4.47;;
65583;SDS011;62116;43.582;1.470;2023-02-15T02:11:00;10.38;;;4.40;;
65583;SDS011;62116;43.582;1.470;2023-02-15T02:13:26;11.35;;;4.40;;
65583;SDS011;62116;43.582;1.470;2023-02-15T02:21:29;12.95;;;4.53;;
65583;SDS011;62116;43.582;1.470;2023-02-15T02:24:28;9.48;;;4.47;;
65583;SDS011;62116;43.582;1.470;2023-02-15T02:29:57;17.63;;;4.63;;
65583;SDS011;62116;43.582;1.470;2023-02-15T02:38:10;13.23;;;4.70;;
65583;SDS011;62116;43.582;1.470;2023-02-15T02:40:50;10.05;;;4.78;;
65583;SDS011;62116;43.582;1.470;2023-02-15T02:43:22;12.48;;;4.63;;
65583;SDS011;62116;43.582;1.470;2023-02-15T02:45:59;12.27;;;4.60;;
65583;SDS011;62116;43.582;1.470;2023-02-15T02:48:30;11.07;;;4.70;;
65583;SDS011;62116;43.582;1.470;2023-02-15T02:50:58;14.60;;;4.78;;
65583;SDS011;62116;43.582;1.470;2023-02-15T02:53:23;11.32;;;4.70;;
65583;SDS011;62116;43.582;1.470;2023-02-15T02:58:39;14.05;;;4.43;;
65583;SDS011;62116;43.582;1.470;2023-02-15T03:01:18;11.68;;;4.75;;
65583;SDS011;62116;43.582;1.470;2023-02-15T03:03:52;10.52;;;4.88;;
65583;SDS011;62116;43.582;1.470;2023-02-15T03:06:31;12.38;;;4.80;;
65583;SDS011;62116;43.582;1.470;2023-02-15T03:09:14;10.25;;;4.97;;
65583;SDS011;62116;43.582;1.470;2023-02-15T03:11:46;10.07;;;4.63;;
65583;SDS011;62116;43.582;1.470;2023-02-15T03:14:13;15.40;;;5.07;;
65583;SDS011;62116;43.582;1.470;2023-02-15T03:16:40;11.15;;;4.75;;
65583;SDS011;62116;43.582;1.470;2023-02-15T03:19:10;12.02;;;4.53;;
65583;SDS011;62116;43.582;1.470;2023-02-15T03:21:38;10.50;;;4.95;;
65583;SDS011;62116;43.582;1.470;2023-02-15T03:24:14;11.48;;;5.00;;
65583;SDS011;62116;43.582;1.470;2023-02-15T03:26:46;10.63;;;4.80;;
65583;SDS011;62116;43.582;1.470;2023-02-15T03:29:16;11.13;;;5.10;;
65583;SDS011;62116;43.582;1.470;2023-02-15T03:31:43;12.15;;;5.10;;
65583;SDS011;62116;43.582;1.470;2023-02-15T03:34:13;12.07;;;5.20;;
65583;SDS011;62116;43.582;1.470;2023-02-15T03:44:29;12.65;;;4.88;;
65583;SDS011;62116;43.582;1.470;2023-02-15T03:47:01;12.70;;;5.10;;
65583;SDS011;62116;43.582;1.470;2023-02-15T03:52:14;16.40;;;5.07;;
65583;SDS011;62116;43.582;1.470;2023-02-15T03:54:42;14.63;;;5.50;;
65583;SDS011;62116;43.582;1.470;2023-02-15T03:59:55;9.93;;;5.00;;
65583;SDS011;62116;43.582;1.470;2023-02-15T04:03:04;11.63;;;5.00;;
65583;SDS011;62116;43.582;1.470;2023-02-15T04:08:08;10.10;;;5.25;;
65583;SDS011;62116;43.582;1.470;2023-02-15T04:10:34;13.82;;;5.40;;
65583;SDS011;62116;43.582;1.470;2023-02-15T04:13:39;11.30;;;5.10;;
65583;SDS011;62116;43.582;1.470;2023-02-15T04:16:04;10.18;;;4.97;;
65583;SDS011;62116;43.582;1.470;2023-02-15T04:21:21;11.65;;;5.30;;
65583;SDS011;62116;43.582;1.470;2023-02-15T04:24:06;13.38;;;5.13;;
65583;SDS011;62116;43.582;1.470;2023-02-15T04:26:50;11.90;;;5.15;;
65583;SDS011;62116;43.582;1.470;2023-02-15T04:29:19;10.30;;;5.10;;
65583;SDS011;62116;43.582;1.470;2023-02-15T04:31:46;12.75;;;5.38;;
65583;SDS011;62116;43.582;1.470;2023-02-15T04:34:12;11.65;;;5.45;;
65583;SDS011;62116;43.582;1.470;2023-02-15T04:36:38;12.93;;;5.78;;
65583;SDS011;62116;43.582;1.470;2023-02-15T04:39:04;11.05;;;5.50;;
65583;SDS011;62116;43.582;1.470;2023-02-15T04:41:30;12.80;;;5.82;;
65583;SDS011;62116;43.582;1.470;2023-02-15T04:43:55;12.20;;;5.20;;
65583;SDS011;62116;43.582;1.470;2023-02-15T04:46:21;12.02;;;5.32;;
65583;SDS011;62116;43.582;1.470;2023-02-15T04:48:46;13.50;;;5.65;;
65583;SDS011;62116;43.582;1.470;2023-02-15T04:51:12;13.75;;;5.70;;
65583;SDS011;62116;43.582;1.470;2023-02-15T04:53:37;13.27;;;5.50;;
65583;SDS011;62116;43.582;1.470;2023-02-15T04:56:03;9.45;;;5.53;;
65583;SDS011;62116;43.582;1.470;2023-02-15T04:58:28;9.98;;;4.88;;
65583;SDS011;62116;43.582;1.470;2023-02-15T05:00:56;11.32;;;5.95;;
65583;SDS011;62116;43.582;1.470;2023-02-15T05:03:22;13.30;;;5.55;;
65583;SDS011;62116;43.582;1.470;2023-02-15T05:05:48;11.60;;;5.25;;
65583;SDS011;62116;43.582;1.470;2023-02-15T05:08:13;13.20;;;5.20;;
65583;SDS011;62116;43.582;1.470;2023-02-15T05:10:39;11.70;;;5.45;;
65583;SDS011;62116;43.582;1.470;2023-02-15T05:13:04;14.95;;;6.55;;
65583;SDS011;62116;43.582;1.470;2023-02-15T05:15:30;12.73;;;5.72;;
65583;SDS011;62116;43.582;1.470;2023-02-15T05:17:55;12.07;;;5.53;;
65583;SDS011;62116;43.582;1.470;2023-02-15T05:20:20;11.82;;;5.43;;
65583;SDS011;62116;43.582;1.470;2023-02-15T05:22:46;12.60;;;5.78;;
65583;SDS011;62116;43.582;1.470;2023-02-15T05:25:11;10.02;;;5.55;;
65583;SDS011;62116;43.582;1.470;2023-02-15T05:27:55;10.73;;;5.53;;
65583;SDS011;62116;43.582;1.470;2023-02-15T05:30:39;14.43;;;6.15;;
65583;SDS011;62116;43.582;1.470;2023-02-15T05:33:05;16.60;;;6.15;;
65583;SDS011;62116;43.582;1.470;2023-02-15T05:35:32;11.48;;;6.20;;
65583;SDS011;62116;43.582;1.470;2023-02-15T05:37:58;10.95;;;5.47;;
65583;SDS011;62116;43.582;1.470;2023-02-15T05:40:23;13.55;;;6.15;;
65583;SDS011;62116;43.582;1.470;2023-02-15T05:42:49;18.17;;;6.32;;
65583;SDS011;62116;43.582;1.470;2023-02-15T05:45:14;15.98;;;6.63;;
65583;SDS011;62116;43.582;1.470;2023-02-15T05:47:40;10.88;;;5.95;;
65583;SDS011;62116;43.582;1.470;2023-02-15T05:50:06;13.68;;;5.95;;
65583;SDS011;62116;43.582;1.470;2023-02-15T05:52:32;11.98;;;5.63;;
65583;SDS011;62116;43.582;1.470;2023-02-15T05:54:57;14.35;;;5.90;;
65583;SDS011;62116;43.582;1.470;2023-02-15T05:57:25;10.32;;;5.45;;
65583;SDS011;62116;43.582;1.470;2023-02-15T05:59:50;11.93;;;5.60;;
65583;SDS011;62116;43.582;1.470;2023-02-15T06:02:16;11.82;;;5.60;;
65583;SDS011;62116;43.582;1.470;2023-02-15T06:04:41;12.57;;;5.40;;
65583;SDS011;62116;43.582;1.470;2023-02-15T06:07:06;15.30;;;5.40;;
65583;SDS011;62116;43.582;1.470;2023-02-15T06:09:32;14.23;;;5.47;;
65583;SDS011;62116;43.582;1.470;2023-02-15T06:11:57;11.52;;;5.45;;
65583;SDS011;62116;43.582;1.470;2023-02-15T06:14:22;9.18;;;5.13;;
65583;SDS011;62116;43.582;1.470;2023-02-15T06:16:48;10.95;;;5.47;;
65583;SDS011;62116;43.582;1.470;2023-02-15T06:19:13;11.57;;;5.30;;
65583;SDS011;62116;43.582;1.470;2023-02-15T06:21:39;11.52;;;5.55;;
65583;SDS011;62116;43.582;1.470;2023-02-15T06:24:04;13.57;;;5.00;;
65583;SDS011;62116;43.582;1.470;2023-02-15T06:26:30;12.77;;;5.03;;
65583;SDS011;62116;43.582;1.470;2023-02-15T06:28:55;12.77;;;5.35;;
65583;SDS011;62116;43.582;1.470;2023-02-15T06:31:20;11.63;;;4.50;;
65583;SDS011;62116;43.582;1.470;2023-02-15T06:33:46;11.15;;;5.40;;
65583;SDS011;62116;43.582;1.470;2023-02-15T06:36:11;12.48;;;5.00;;
65583;SDS011;62116;43.582;1.470;2023-02-15T06:38:37;10.70;;;4.70;;
65583;SDS011;62116;43.582;1.470;2023-02-15T06:41:03;13.57;;;5.15;;
65583;SDS011;62116;43.582;1.470;2023-02-15T06:43:28;12.77;;;5.28;;
65583;SDS011;62116;43.582;1.470;2023-02-15T06:45:54;9.93;;;4.70;;
65583;SDS011;62116;43.582;1.470;2023-02-15T06:48:19;16.77;;;5.60;;
65583;SDS011;62116;43.582;1.470;2023-02-15T06:50:44;14.65;;;5.40;;
65583;SDS011;62116;43.582;1.470;2023-02-15T06:53:10;12.18;;;5.13;;
65583;SDS011;62116;43.582;1.470;2023-02-15T06:55:35;14.52;;;5.20;;
65583;SDS011;62116;43.582;1.470;2023-02-15T06:58:01;9.90;;;4.63;;
65583;SDS011;62116;43.582;1.470;2023-02-15T07:00:26;12.98;;;5.32;;
65583;SDS011;62116;43.582;1.470;2023-02-15T07:02:55;18.75;;;5.30;;
65583;SDS011;62116;43.582;1.470;2023-02-15T07:05:22;17.25;;;5.35;;
65583;SDS011;62116;43.582;1.470;2023-02-15T07:07:48;13.73;;;5.05;;
65583;SDS011;62116;43.582;1.470;2023-02-15T07:10:13;21.20;;;5.50;;
65583;SDS011;62116;43.582;1.470;2023-02-15T07:12:39;12.68;;;5.25;;
65583;SDS011;62116;43.582;1.470;2023-02-15T07:15:10;11.98;;;5.22;;
65583;SDS011;62116;43.582;1.470;2023-02-15T07:17:40;10.07;;;5.40;;
65583;SDS011;62116;43.582;1.470;2023-02-15T07:20:07;14.32;;;5.55;;
65583;SDS011;62116;43.582;1.470;2023-02-15T07:25:03;13.13;;;5.90;;
65583;SDS011;62116;43.582;1.470;2023-02-15T07:27:31;18.65;;;6.07;;
65583;SDS011;62116;43.582;1.470;2023-02-15T07:29:56;12.95;;;5.47;;
65583;SDS011;62116;43.582;1.470;2023-02-15T07:32:22;10.73;;;5.57;;
65583;SDS011;62116;43.582;1.470;2023-02-15T07:34:47;11.10;;;5.00;;
65583;SDS011;62116;43.582;1.470;2023-02-15T07:37:13;12.43;;;5.20;;
65583;SDS011;62116;43.582;1.470;2023-02-15T07:39:38;13.38;;;5.40;;
65583;SDS011;62116;43.582;1.470;2023-02-15T07:42:04;9.98;;;5.07;;
65583;SDS011;62116;43.582;1.470;2023-02-15T07:44:29;11.02;;;5.25;;
65583;SDS011;62116;43.582;1.470;2023-02-15T07:46:54;10.00;;;4.47;;
65583;SDS011;62116;43.582;1.470;2023-02-15T07:49:20;15.82;;;5.32;;
65583;SDS011;62116;43.582;1.470;2023-02-15T07:51:45;11.38;;;4.68;;
65583;SDS011;62116;43.582;1.470;2023-02-15T07:54:11;14.60;;;4.90;;
65583;SDS011;62116;43.582;1.470;2023-02-15T07:56:36;11.38;;;4.68;;
65583;SDS011;62116;43.582;1.470;2023-02-15T07:59:02;11.27;;;5.25;;
65583;SDS011;62116;43.582;1.470;2023-02-15T08:01:31;13.77;;;4.95;;
65583;SDS011;62116;43.582;1.470;2023-02-15T08:03:58;10.38;;;4.85;;
65583;SDS011;62116;43.582;1.470;2023-02-15T08:06:24;9.80;;;4.20;;
65583;SDS011;62116;43.582;1.470;2023-02-15T08:08:52;10.15;;;4.50;;
65583;SDS011;62116;43.582;1.470;2023-02-15T08:11:24;13.82;;;4.82;;
65583;SDS011;62116;43.582;1.470;2023-02-15T08:14:01;12.23;;;4.78;;
65583;SDS011;62116;43.582;1.470;2023-02-15T08:19:06;14.45;;;5.15;;
65583;SDS011;62116;43.582;1.470;2023-02-15T08:21:45;8.88;;;4.35;;
65583;SDS011;62116;43.582;1.470;2023-02-15T08:24:12;8.15;;;4.18;;
65583;SDS011;62116;43.582;1.470;2023-02-15T08:26:39;10.07;;;4.43;;
65583;SDS011;62116;43.582;1.470;2023-02-15T08:29:06;9.30;;;4.45;;
65583;SDS011;62116;43.582;1.470;2023-02-15T08:31:33;9.77;;;4.82;;
65583;SDS011;62116;43.582;1.470;2023-02-15T08:34:00;11.70;;;4.65;;
65583;SDS011;62116;43.582;1.470;2023-02-15T08:36:27;11.38;;;4.78;;
65583;SDS011;62116;43.582;1.470;2023-02-15T08:38:54;11.18;;;4.88;;
65583;SDS011;62116;43.582;1.470;2023-02-15T08:41:26;10.10;;;4.72;;
65583;SDS011;62116;43.582;1.470;2023-02-15T08:43:54;13.35;;;4.90;;
65583;SDS011;62116;43.582;1.470;2023-02-15T08:46:21;10.25;;;4.47;;
65583;SDS011;62116;43.582;1.470;2023-02-15T08:48:48;10.18;;;4.68;;
65583;SDS011;62116;43.582;1.470;2023-02-15T08:51:14;13.10;;;4.80;;
65583;SDS011;62116;43.582;1.470;2023-02-15T08:53:45;10.40;;;4.50;;
65583;SDS011;62116;43.582;1.470;2023-02-15T08:56:16;12.48;;;4.45;;
65583;SDS011;62116;43.582;1.470;2023-02-15T08:58:43;9.45;;;4.13;;
65583;SDS011;62116;43.582;1.470;2023-02-15T09:01:12;11.52;;;4.00;;
65583;SDS011;62116;43.582;1.470;2023-02-15T09:03:42;12.40;;;4.30;;
65583;SDS011;62116;43.582;1.470;2023-02-15T09:06:09;10.13;;;3.80;;
65583;SDS011;62116;43.582;1.470;2023-02-15T09:08:34;12.35;;;4.00;;
65583;SDS011;62116;43.582;1.470;2023-02-15T09:11:17;13.68;;;4.20;;
65583;SDS011;62116;43.582;1.470;2023-02-15T09:13:55;7.55;;;3.65;;
65583;SDS011;62116;43.582;1.470;2023-02-15T09:16:22;8.43;;;4.03;;
65583;SDS011;62116;43.582;1.470;2023-02-15T09:18:50;9.27;;;4.30;;
65583;SDS011;62116;43.582;1.470;2023-02-15T09:21:17;8.18;;;3.88;;
65583;SDS011;62116;43.582;1.470;2023-02-15T09:23:45;10.05;;;3.63;;
65583;SDS011;62116;43.582;1.470;2023-02-15T09:26:19;7.60;;;3.78;;
65583;SDS011;62116;43.582;1.470;2023-02-15T09:28:45;7.18;;;3.47;;
65583;SDS011;62116;43.582;1.470;2023-02-15T09:31:16;11.10;;;4.13;;
65583;SDS011;62116;43.582;1.470;2023-02-15T09:33:43;12.55;;;4.45;;
65583;SDS011;62116;43.582;1.470;2023-02-15T09:36:20;9.95;;;3.95;;
65583;SDS011;62116;43.582;1.470;2023-02-15T09:39:14;7.70;;;3.60;;
65583;SDS011;62116;43.582;1.470;2023-02-15T09:44:41;11.25;;;3.90;;
65583;SDS011;62116;43.582;1.470;2023-02-15T09:52:40;9.63;;;3.58;;
65583;SDS011;62116;43.582;1.470;2023-02-15T09:58:11;7.95;;;3.60;;
65583;SDS011;62116;43.582;1.470;2023-02-15T10:06:20;7.43;;;3.63;;
65583;SDS011;62116;43.582;1.470;2023-02-15T10:09:11;15.27;;;3.42;;
65583;SDS011;62116;43.582;1.470;2023-02-15T10:28:06;7.50;;;3.63;;
65583;SDS011;62116;43.582;1.470;2023-02-15T10:30:48;10.52;;;3.42;;
65583;SDS011;62116;43.582;1.470;2023-02-15T10:35:57;10.38;;;3.30;;
65583;SDS011;62116;43.582;1.470;2023-02-15T10:38:57;10.05;;;3.05;;
65583;SDS011;62116;43.582;1.470;2023-02-15T10:44:15;8.30;;;3.17;;
65583;SDS011;62116;43.582;1.470;2023-02-15T10:52:42;12.73;;;3.50;;
65583;SDS011;62116;43.582;1.470;2023-02-15T10:58:20;9.95;;;3.30;;
65583;SDS011;62116;43.582;1.470;2023-02-15T11:06:12;12.02;;;3.42;;
65583;SDS011;62116;43.582;1.470;2023-02-15T11:08:43;9.07;;;3.83;;
65583;SDS011;62116;43.582;1.470;2023-02-15T11:11:21;11.70;;;3.47;;
65583;SDS011;62116;43.582;1.470;2023-02-15T11:13:59;6.63;;;3.13;;
65583;SDS011;62116;43.582;1.470;2023-02-15T11:16:34;5.88;;;3.20;;
65583;SDS011;62116;43.582;1.470;2023-02-15T11:19:06;8.80;;;2.90;;
65583;SDS011;62116;43.582;1.470;2023-02-15T11:21:48;7.57;;;3.08;;
65583;SDS011;62116;43.582;1.470;2023-02-15T11:24:16;8.10;;;3.05;;
65583;SDS011;62116;43.582;1.470;2023-02-15T11:34:56;7.32;;;2.70;;
65583;SDS011;62116;43.582;1.470;2023-02-15T11:37:33;8.48;;;2.90;;
65583;SDS011;62116;43.582;1.470;2023-02-15T11:40:03;7.47;;;3.07;;
65583;SDS011;62116;43.582;1.470;2023-02-15T11:42:40;7.88;;;2.67;;
65583;SDS011;62116;43.582;1.470;2023-02-15T11:45:24;8.18;;;2.70;;
65583;SDS011;62116;43.582;1.470;2023-02-15T11:47:53;5.68;;;2.80;;
65583;SDS011;62116;43.582;1.470;2023-02-15T11:50:22;6.80;;;2.75;;
65583;SDS011;62116;43.582;1.470;2023-02-15T11:52:52;5.72;;;2.80;;
65583;SDS011;62116;43.582;1.470;2023-02-15T11:55:22;7.25;;;2.60;;
65583;SDS011;62116;43.582;1.470;2023-02-15T11:58:39;7.93;;;2.58;;
65583;SDS011;62116;43.582;1.470;2023-02-15T12:00:42;8.30;;;2.50;;
65583;SDS011;62116;43.582;1.470;2023-02-15T12:03:14;4.53;;;2.70;;
65583;SDS011;62116;43.582;1.470;2023-02-15T12:05:45;6.68;;;2.80;;
65583;SDS011;62116;43.582;1.470;2023-02-15T12:10:55;9.13;;;3.03;;
65583;SDS011;62116;43.582;1.470;2023-02-15T12:13:30;8.00;;;2.78;;
65583;SDS011;62116;43.582;1.470;2023-02-15T12:15:57;9.18;;;3.10;;
65583;SDS011;62116;43.582;1.470;2023-02-15T12:18:37;7.78;;;2.80;;
65583;SDS011;62116;43.582;1.470;2023-02-15T12:21:11;11.27;;;2.90;;
65583;SDS011;62116;43.582;1.470;2023-02-15T12:26:42;5.70;;;2.30;;
65583;SDS011;62116;43.582;1.470;2023-02-15T12:29:17;7.60;;;2.50;;
65583;SDS011;62116;43.582;1.470;2023-02-15T12:31:47;7.13;;;2.63;;
65583;SDS011;62116;43.582;1.470;2023-02-15T12:36:48;5.72;;;2.70;;
65583;SDS011;62116;43.582;1.470;2023-02-15T12:39:22;7.20;;;2.92;;
65583;SDS011;62116;43.582;1.470;2023-02-15T12:44:21;6.70;;;2.85;;
65583;SDS011;62116;43.582;1.470;2023-02-15T12:49:29;7.88;;;2.70;;
65583;SDS011;62116;43.582;1.470;2023-02-15T12:52:00;9.55;;;2.90;;
65583;SDS011;62116;43.582;1.470;2023-02-15T13:00:37;8.93;;;2.90;;
65583;SDS011;62116;43.582;1.470;2023-02-15T13:02:44;8.45;;;2.50;;
65583;SDS011;62116;43.582;1.470;2023-02-15T13:07:48;7.95;;;2.55;;
65583;SDS011;62116;43.582;1.470;2023-02-15T13:10:26;7.80;;;2.78;;
65583;SDS011;62116;43.582;1.470;2023-02-15T13:15:27;5.43;;;2.47;;
65583;SDS011;62116;43.582;1.470;2023-02-15T13:17:57;5.47;;;2.70;;
65583;SDS011;62116;43.582;1.470;2023-02-15T13:20:24;5.95;;;2.65;;
65583;SDS011;62116;43.582;1.470;2023-02-15T13:22:54;6.68;;;2.45;;
65583;SDS011;62116;43.582;1.470;2023-02-15T13:25:51;5.63;;;2.30;;
65583;SDS011;62116;43.582;1.470;2023-02-15T13:28:18;6.78;;;2.83;;
65583;SDS011;62116;43.582;1.470;2023-02-15T13:30:49;7.38;;;2.63;;
65583;SDS011;62116;43.582;1.470;2023-02-15T13:41:23;9.65;;;2.53;;
65583;SDS011;62116;43.582;1.470;2023-02-15T13:43:56;4.75;;;2.65;;
65583;SDS011;62116;43.582;1.470;2023-02-15T13:52:21;7.40;;;2.65;;
65583;SDS011;62116;43.582;1.470;2023-02-15T14:03:10;6.20;;;2.63;;
65583;SDS011;62116;43.582;1.470;2023-02-15T14:06:09;5.65;;;2.40;;
65583;SDS011;62116;43.582;1.470;2023-02-15T14:14:13;4.82;;;2.30;;
65583;SDS011;62116;43.582;1.470;2023-02-15T14:24:43;6.93;;;2.38;;
65583;SDS011;62116;43.582;1.470;2023-02-15T14:32:27;3.38;;;2.20;;
65583;SDS011;62116;43.582;1.470;2023-02-15T14:35:02;6.22;;;2.35;;
65583;SDS011;62116;43.582;1.470;2023-02-15T14:37:52;6.15;;;2.17;;
65583;SDS011;62116;43.582;1.470;2023-02-15T14:48:58;5.43;;;2.60;;
65583;SDS011;62116;43.582;1.470;2023-02-15T14:56:41;8.57;;;2.92;;
65583;SDS011;62116;43.582;1.470;2023-02-15T14:59:18;7.70;;;2.53;;
65583;SDS011;62116;43.582;1.470;2023-02-15T15:02:46;5.05;;;2.17;;
65583;SDS011;62116;43.582;1.470;2023-02-15T15:05:17;6.80;;;2.10;;
65583;SDS011;62116;43.582;1.470;2023-02-15T15:08:01;7.55;;;2.30;;
65583;SDS011;62116;43.582;1.470;2023-02-15T15:10:39;8.32;;;2.38;;
65583;SDS011;62116;43.582;1.470;2023-02-15T15:15:56;7.68;;;2.70;;
65583;SDS011;62116;43.582;1.470;2023-02-15T15:18:45;7.10;;;2.58;;
65583;SDS011;62116;43.582;1.470;2023-02-15T15:22:02;6.97;;;2.60;;
65583;SDS011;62116;43.582;1.470;2023-02-15T15:40:29;5.88;;;2.35;;
65583;SDS011;62116;43.582;1.470;2023-02-15T15:48:28;6.82;;;2.40;;
65583;SDS011;62116;43.582;1.470;2023-02-15T15:51:00;7.13;;;2.35;;
65583;SDS011;62116;43.582;1.470;2023-02-15T15:53:29;6.05;;;2.28;;
65583;SDS011;62116;43.582;1.470;2023-02-15T15:56:00;6.20;;;2.60;;
65583;SDS011;62116;43.582;1.470;2023-02-15T15:58:30;5.43;;;2.40;;
65583;SDS011;62116;43.582;1.470;2023-02-15T16:01:02;6.97;;;2.63;;
65583;SDS011;62116;43.582;1.470;2023-02-15T16:03:31;7.13;;;2.20;;
65583;SDS011;62116;43.582;1.470;2023-02-15T16:05:56;5.43;;;2.75;;
65583;SDS011;62116;43.582;1.470;2023-02-15T16:08:25;4.97;;;2.33;;
65583;SDS011;62116;43.582;1.470;2023-02-15T16:10:55;5.55;;;2.30;;
65583;SDS011;62116;43.582;1.470;2023-02-15T16:13:21;7.00;;;3.00;;
65583;SDS011;62116;43.582;1.470;2023-02-15T16:15:47;7.20;;;2.67;;
65583;SDS011;62116;43.582;1.470;2023-02-15T16:18:17;8.70;;;2.88;;
65583;SDS011;62116;43.582;1.470;2023-02-15T16:20:48;8.80;;;3.33;;
65583;SDS011;62116;43.582;1.470;2023-02-15T16:23:25;9.63;;;3.15;;
65583;SDS011;62116;43.582;1.470;2023-02-15T16:28:51;6.90;;;2.85;;
65583;SDS011;62116;43.582;1.470;2023-02-15T16:31:17;5.40;;;2.80;;
65583;SDS011;62116;43.582;1.470;2023-02-15T16:33:44;4.07;;;2.58;;
65583;SDS011;62116;43.582;1.470;2023-02-15T16:36:10;6.97;;;3.25;;
65583;SDS011;62116;43.582;1.470;2023-02-15T16:38:54;6.80;;;2.88;;
65583;SDS011;62116;43.582;1.470;2023-02-15T16:41:29;6.18;;;3.00;;
65583;SDS011;62116;43.582;1.470;2023-02-15T16:44:17;8.55;;;3.05;;
65583;SDS011;62116;43.582;1.470;2023-02-15T16:46:43;6.53;;;3.30;;
65583;SDS011;62116;43.582;1.470;2023-02-15T16:49:23;8.25;;;3.22;;
65583;SDS011;62116;43.582;1.470;2023-02-15T16:52:01;7.38;;;3.33;;
65583;SDS011;62116;43.582;1.470;2023-02-15T16:54:31;6.40;;;3.42;;
65583;SDS011;62116;43.582;1.470;2023-02-15T16:56:58;5.07;;;3.08;;
65583;SDS011;62116;43.582;1.470;2023-02-15T16:59:39;6.32;;;2.92;;
65583;SDS011;62116;43.582;1.470;2023-02-15T17:02:16;5.57;;;2.78;;
65583;SDS011;62116;43.582;1.470;2023-02-15T17:07:49;6.07;;;3.10;;
65583;SDS011;62116;43.582;1.470;2023-02-15T17:10:34;6.32;;;3.45;;
65583;SDS011;62116;43.582;1.470;2023-02-15T17:13:02;6.90;;;3.25;;
65583;SDS011;62116;43.582;1.470;2023-02-15T17:15:35;9.82;;;3.25;;
65583;SDS011;62116;43.582;1.470;2023-02-15T17:18:03;7.35;;;3.40;;
65583;SDS011;62116;43.582;1.470;2023-02-15T17:20:30;9.13;;;3.50;;
65583;SDS011;62116;43.582;1.470;2023-02-15T17:22:57;8.48;;;3.30;;
65583;SDS011;62116;43.582;1.470;2023-02-15T17:25:28;10.55;;;3.80;;
65583;SDS011;62116;43.582;1.470;2023-02-15T17:28:02;7.63;;;3.70;;
65583;SDS011;62116;43.582;1.470;2023-02-15T17:30:32;11.32;;;4.00;;
65583;SDS011;62116;43.582;1.470;2023-02-15T17:33:00;10.63;;;3.78;;
65583;SDS011;62116;43.582;1.470;2023-02-15T17:35:30;12.00;;;4.00;;
65583;SDS011;62116;43.582;1.470;2023-02-15T17:38:39;11.85;;;3.90;;
65583;SDS011;62116;43.582;1.470;2023-02-15T17:40:45;13.70;;;4.85;;
65583;SDS011;62116;43.582;1.470;2023-02-15T17:43:11;10.73;;;4.88;;
65583;SDS011;62116;43.582;1.470;2023-02-15T17:45:40;10.52;;;4.57;;
65583;SDS011;62116;43.582;1.470;2023-02-15T17:48:35;7.70;;;4.38;;
65583;SDS011;62116;43.582;1.470;2023-02-15T17:51:01;10.73;;;4.53;;
65583;SDS011;62116;43.582;1.470;2023-02-15T17:53:29;8.90;;;4.05;;
65583;SDS011;62116;43.582;1.470;2023-02-15T17:55:55;9.00;;;4.30;;
65583;SDS011;62116;43.582;1.470;2023-02-15T17:58:20;13.15;;;4.60;;
65583;SDS011;62116;43.582;1.470;2023-02-15T18:03:42;11.63;;;5.10;;
65583;SDS011;62116;43.582;1.470;2023-02-15T18:06:28;8.38;;;4.45;;
65583;SDS011;62116;43.582;1.470;2023-02-15T18:09:13;8.02;;;4.28;;
65583;SDS011;62116;43.582;1.470;2023-02-15T18:11:57;9.90;;;4.65;;
65583;SDS011;62116;43.582;1.470;2023-02-15T18:14:23;9.27;;;4.10;;
65583;SDS011;62116;43.582;1.470;2023-02-15T18:16:49;7.53;;;4.05;;
65583;SDS011;62116;43.582;1.470;2023-02-15T18:19:15;10.02;;;4.15;;
65583;SDS011;62116;43.582;1.470;2023-02-15T18:21:49;7.55;;;4.00;;
65583;SDS011;62116;43.582;1.470;2023-02-15T18:24:23;8.45;;;4.03;;
65583;SDS011;62116;43.582;1.470;2023-02-15T18:26:51;7.97;;;4.00;;
65583;SDS011;62116;43.582;1.470;2023-02-15T18:29:18;11.07;;;4.05;;
65583;SDS011;62116;43.582;1.470;2023-02-15T18:31:44;7.95;;;4.10;;
65583;SDS011;62116;43.582;1.470;2023-02-15T18:34:26;9.52;;;4.20;;
65583;SDS011;62116;43.582;1.470;2023-02-15T18:36:54;7.78;;;4.03;;